sensor_id;sensor_type;location;lat;lon;timestamp;P1;durP1;ratioP1;P2;durP2;ratioP2
75645;SDS011;64237;52.438;13.240;2023-01-19T00:01:05;14.98;;;5.53;;
75645;SDS011;64237;52.438;13.240;2023-01-19T00:03:42;13.07;;;4.97;;
75645;SDS011;64237;52.438;13.240;2023-01-19T00:06:08;17.23;;;5.30;;
75645;SDS011;64237;52.438;13.240;2023-01-19T00:08:36;14.32;;;4.88;;
75645;SDS011;64237;52.438;13.240;2023-01-19T00:11:07;11.85;;;4.82;;
75645;SDS011;64237;52.438;13.240;2023-01-19T00:13:39;16.27;;;5.53;;
75645;SDS011;64237;52.438;13.240;2023-01-19T00:16:29;16.52;;;5.35;;
75645;SDS011;64237;52.438;13.240;2023-01-19T00:18:52;16.73;;;5.35;;
75645;SDS011;64237;52.438;13.240;2023-01-19T00:21:23;15.85;;;4.97;;
75645;SDS011;64237;52.438;13.240;2023-01-19T00:24:03;12.40;;;5.10;;
75645;SDS011;64237;52.438;13.240;2023-01-19T00:26:55;18.15;;;5.25;;
75645;SDS011;64237;52.438;13.240;2023-01-19T00:29:52;14.50;;;5.47;;
75645;SDS011;64237;52.438;13.240;2023-01-19T00:32:17;18.63;;;5.65;;
75645;SDS011;64237;52.438;13.240;2023-01-19T00:34:59;14.98;;;5.45;;
75645;SDS011;64237;52.438;13.240;2023-01-19T00:37:24;13.37;;;5.17;;
75645;SDS011;64237;52.438;13.240;2023-01-19T00:39:49;14.60;;;5.43;;
75645;SDS011;64237;52.438;13.240;2023-01-19T00:42:14;14.32;;;5.38;;
75645;SDS011;64237;52.438;13.240;2023-01-19T00:44:58;13.05;;;4.75;;
75645;SDS011;64237;52.438;13.240;2023-01-19T00:47:24;15.88;;;5.82;;
75645;SDS011;64237;52.438;13.240;2023-01-19T00:49:50;14.20;;;5.22;;
75645;SDS011;64237;52.438;13.240;2023-01-19T00:52:15;17.70;;;5.50;;
75645;SDS011;64237;52.438;13.240;2023-01-19T00:54:40;14.00;;;5.35;;
75645;SDS011;64237;52.438;13.240;2023-01-19T00:57:06;14.57;;;4.93;;
75645;SDS011;64237;52.438;13.240;2023-01-19T00:59:31;13.63;;;5.55;;
75645;SDS011;64237;52.438;13.240;2023-01-19T01:01:56;12.88;;;4.95;;
75645;SDS011;64237;52.438;13.240;2023-01-19T01:04:22;15.15;;;5.47;;
75645;SDS011;64237;52.438;13.240;2023-01-19T01:06:47;15.18;;;5.72;;
75645;SDS011;64237;52.438;13.240;2023-01-19T01:09:14;14.85;;;5.40;;
75645;SDS011;64237;52.438;13.240;2023-01-19T01:11:40;16.75;;;5.72;;
75645;SDS011;64237;52.438;13.240;2023-01-19T01:14:06;13.27;;;5.40;;
75645;SDS011;64237;52.438;13.240;2023-01-19T01:16:33;14.65;;;5.07;;
75645;SDS011;64237;52.438;13.240;2023-01-19T01:18:59;15.43;;;5.78;;
75645;SDS011;64237;52.438;13.240;2023-01-19T01:21:24;17.38;;;5.55;;
75645;SDS011;64237;52.438;13.240;2023-01-19T01:23:49;14.90;;;5.97;;
75645;SDS011;64237;52.438;13.240;2023-01-19T01:26:15;18.10;;;5.78;;
75645;SDS011;64237;52.438;13.240;2023-01-19T01:28:40;14.82;;;5.25;;
75645;SDS011;64237;52.438;13.240;2023-01-19T01:31:05;13.25;;;4.95;;
75645;SDS011;64237;52.438;13.240;2023-01-19T01:33:31;15.13;;;5.25;;
75645;SDS011;64237;52.438;13.240;2023-01-19T01:35:56;20.10;;;6.00;;
75645;SDS011;64237;52.438;13.240;2023-01-19T01:38:21;15.70;;;5.47;;
75645;SDS011;64237;52.438;13.240;2023-01-19T01:40:47;13.82;;;5.25;;
75645;SDS011;64237;52.438;13.240;2023-01-19T01:43:13;13.57;;;4.78;;
75645;SDS011;64237;52.438;13.240;2023-01-19T01:45:40;12.50;;;4.72;;
75645;SDS011;64237;52.438;13.240;2023-01-19T01:48:14;14.23;;;4.93;;
75645;SDS011;64237;52.438;13.240;2023-01-19T01:53:54;13.48;;;4.78;;
75645;SDS011;64237;52.438;13.240;2023-01-19T01:56:35;14.80;;;4.63;;
75645;SDS011;64237;52.438;13.240;2023-01-19T01:59:14;14.77;;;4.63;;
75645;SDS011;64237;52.438;13.240;2023-01-19T02:01:49;12.52;;;5.03;;
75645;SDS011;64237;52.438;13.240;2023-01-19T02:04:37;13.52;;;4.88;;
75645;SDS011;64237;52.438;13.240;2023-01-19T02:07:04;15.98;;;5.15;;
75645;SDS011;64237;52.438;13.240;2023-01-19T02:09:48;16.98;;;5.00;;
75645;SDS011;64237;52.438;13.240;2023-01-19T02:12:32;13.93;;;4.85;;
75645;SDS011;64237;52.438;13.240;2023-01-19T02:15:17;15.05;;;5.25;;
75645;SDS011;64237;52.438;13.240;2023-01-19T02:17:44;13.23;;;5.13;;
75645;SDS011;64237;52.438;13.240;2023-01-19T02:20:10;13.50;;;4.95;;
75645;SDS011;64237;52.438;13.240;2023-01-19T02:22:39;13.18;;;5.32;;
75645;SDS011;64237;52.438;13.240;2023-01-19T02:25:10;13.35;;;5.00;;
75645;SDS011;64237;52.438;13.240;2023-01-19T02:27:36;15.27;;;4.90;;
75645;SDS011;64237;52.438;13.240;2023-01-19T02:30:01;13.77;;;4.85;;
75645;SDS011;64237;52.438;13.240;2023-01-19T02:32:27;15.00;;;4.95;;
75645;SDS011;64237;52.438;13.240;2023-01-19T02:34:53;13.82;;;4.68;;
75645;SDS011;64237;52.438;13.240;2023-01-19T02:37:19;11.98;;;4.68;;
75645;SDS011;64237;52.438;13.240;2023-01-19T02:39:46;13.90;;;4.85;;
75645;SDS011;64237;52.438;13.240;2023-01-19T02:42:17;13.90;;;5.22;;
75645;SDS011;64237;52.438;13.240;2023-01-19T02:44:47;11.55;;;5.10;;
75645;SDS011;64237;52.438;13.240;2023-01-19T02:47:14;14.75;;;5.50;;
75645;SDS011;64237;52.438;13.240;2023-01-19T02:49:40;12.75;;;5.45;;
75645;SDS011;64237;52.438;13.240;2023-01-19T02:52:06;12.43;;;5.20;;
75645;SDS011;64237;52.438;13.240;2023-01-19T02:54:48;15.27;;;5.18;;
75645;SDS011;64237;52.438;13.240;2023-01-19T03:00:20;13.10;;;4.45;;
75645;SDS011;64237;52.438;13.240;2023-01-19T03:05:33;11.50;;;3.83;;
75645;SDS011;64237;52.438;13.240;2023-01-19T03:18:28;12.93;;;5.00;;
75645;SDS011;64237;52.438;13.240;2023-01-19T03:20:56;12.43;;;4.55;;
75645;SDS011;64237;52.438;13.240;2023-01-19T03:23:26;13.77;;;4.90;;
75645;SDS011;64237;52.438;13.240;2023-01-19T03:25:55;11.73;;;4.95;;
75645;SDS011;64237;52.438;13.240;2023-01-19T03:28:23;13.32;;;4.57;;
75645;SDS011;64237;52.438;13.240;2023-01-19T03:30:56;10.80;;;4.47;;
75645;SDS011;64237;52.438;13.240;2023-01-19T03:33:27;13.88;;;5.15;;
75645;SDS011;64237;52.438;13.240;2023-01-19T03:36:00;12.45;;;4.65;;
75645;SDS011;64237;52.438;13.240;2023-01-19T03:38:31;12.10;;;4.88;;
75645;SDS011;64237;52.438;13.240;2023-01-19T03:41:00;12.38;;;4.75;;
75645;SDS011;64237;52.438;13.240;2023-01-19T03:43:29;15.10;;;5.85;;
75645;SDS011;64237;52.438;13.240;2023-01-19T03:45:55;14.88;;;5.50;;
75645;SDS011;64237;52.438;13.240;2023-01-19T03:48:21;14.45;;;5.50;;
75645;SDS011;64237;52.438;13.240;2023-01-19T03:50:47;15.60;;;5.95;;
75645;SDS011;64237;52.438;13.240;2023-01-19T03:53:13;16.77;;;6.22;;
75645;SDS011;64237;52.438;13.240;2023-01-19T03:55:41;15.77;;;6.22;;
75645;SDS011;64237;52.438;13.240;2023-01-19T03:58:09;15.85;;;6.20;;
75645;SDS011;64237;52.438;13.240;2023-01-19T04:00:34;19.17;;;5.85;;
75645;SDS011;64237;52.438;13.240;2023-01-19T04:03:00;15.73;;;5.35;;
75645;SDS011;64237;52.438;13.240;2023-01-19T04:05:27;17.02;;;6.47;;
75645;SDS011;64237;52.438;13.240;2023-01-19T04:07:53;15.65;;;5.90;;
75645;SDS011;64237;52.438;13.240;2023-01-19T04:10:18;17.17;;;5.80;;
75645;SDS011;64237;52.438;13.240;2023-01-19T04:12:44;14.68;;;5.50;;
75645;SDS011;64237;52.438;13.240;2023-01-19T04:15:10;16.13;;;5.82;;
75645;SDS011;64237;52.438;13.240;2023-01-19T04:17:36;16.52;;;5.82;;
75645;SDS011;64237;52.438;13.240;2023-01-19T04:20:02;13.98;;;6.10;;
75645;SDS011;64237;52.438;13.240;2023-01-19T04:22:28;16.25;;;6.38;;
75645;SDS011;64237;52.438;13.240;2023-01-19T04:24:53;17.63;;;5.95;;
75645;SDS011;64237;52.438;13.240;2023-01-19T04:27:19;16.05;;;6.38;;
75645;SDS011;64237;52.438;13.240;2023-01-19T04:29:45;13.98;;;5.13;;
75645;SDS011;64237;52.438;13.240;2023-01-19T04:32:11;16.23;;;6.35;;
75645;SDS011;64237;52.438;13.240;2023-01-19T04:34:37;18.17;;;6.53;;
75645;SDS011;64237;52.438;13.240;2023-01-19T04:37:03;17.87;;;6.17;;
75645;SDS011;64237;52.438;13.240;2023-01-19T04:39:28;17.08;;;5.65;;
75645;SDS011;64237;52.438;13.240;2023-01-19T04:41:54;17.80;;;5.80;;
75645;SDS011;64237;52.438;13.240;2023-01-19T04:44:21;14.95;;;5.20;;
75645;SDS011;64237;52.438;13.240;2023-01-19T04:46:46;15.73;;;5.47;;
75645;SDS011;64237;52.438;13.240;2023-01-19T04:49:12;16.75;;;5.82;;
75645;SDS011;64237;52.438;13.240;2023-01-19T04:51:37;18.15;;;5.22;;
75645;SDS011;64237;52.438;13.240;2023-01-19T04:54:03;14.45;;;5.25;;
75645;SDS011;64237;52.438;13.240;2023-01-19T04:56:28;13.57;;;5.27;;
75645;SDS011;64237;52.438;13.240;2023-01-19T04:58:53;13.52;;;5.45;;
75645;SDS011;64237;52.438;13.240;2023-01-19T05:01:19;15.18;;;5.90;;
75645;SDS011;64237;52.438;13.240;2023-01-19T05:03:44;14.43;;;5.50;;
75645;SDS011;64237;52.438;13.240;2023-01-19T05:06:10;15.07;;;5.40;;
75645;SDS011;64237;52.438;13.240;2023-01-19T05:08:35;15.80;;;5.28;;
75645;SDS011;64237;52.438;13.240;2023-01-19T05:11:01;13.73;;;5.68;;
75645;SDS011;64237;52.438;13.240;2023-01-19T05:13:26;14.48;;;5.65;;
75645;SDS011;64237;52.438;13.240;2023-01-19T05:15:52;15.55;;;5.53;;
75645;SDS011;64237;52.438;13.240;2023-01-19T05:18:17;14.82;;;6.00;;
75645;SDS011;64237;52.438;13.240;2023-01-19T05:20:42;12.45;;;5.43;;
75645;SDS011;64237;52.438;13.240;2023-01-19T05:23:08;15.55;;;5.72;;
75645;SDS011;64237;52.438;13.240;2023-01-19T05:25:33;15.23;;;5.60;;
75645;SDS011;64237;52.438;13.240;2023-01-19T05:27:58;12.20;;;4.90;;
75645;SDS011;64237;52.438;13.240;2023-01-19T05:30:24;12.30;;;4.93;;
75645;SDS011;64237;52.438;13.240;2023-01-19T05:32:49;13.52;;;5.30;;
75645;SDS011;64237;52.438;13.240;2023-01-19T05:35:14;15.02;;;6.15;;
75645;SDS011;64237;52.438;13.240;2023-01-19T05:37:41;12.77;;;5.28;;
75645;SDS011;64237;52.438;13.240;2023-01-19T05:40:08;15.73;;;5.80;;
75645;SDS011;64237;52.438;13.240;2023-01-19T05:42:35;13.48;;;4.97;;
75645;SDS011;64237;52.438;13.240;2023-01-19T05:45:00;12.82;;;5.35;;
75645;SDS011;64237;52.438;13.240;2023-01-19T05:47:28;14.57;;;5.77;;
75645;SDS011;64237;52.438;13.240;2023-01-19T05:49:54;16.52;;;6.10;;
75645;SDS011;64237;52.438;13.240;2023-01-19T05:52:19;11.68;;;5.13;;
75645;SDS011;64237;52.438;13.240;2023-01-19T05:54:45;17.52;;;5.30;;
75645;SDS011;64237;52.438;13.240;2023-01-19T05:57:12;13.07;;;5.05;;
75645;SDS011;64237;52.438;13.240;2023-01-19T05:59:38;15.25;;;6.07;;
75645;SDS011;64237;52.438;13.240;2023-01-19T06:02:04;12.70;;;5.70;;
75645;SDS011;64237;52.438;13.240;2023-01-19T06:04:29;16.27;;;5.97;;
75645;SDS011;64237;52.438;13.240;2023-01-19T06:06:54;14.77;;;5.67;;
75645;SDS011;64237;52.438;13.240;2023-01-19T06:09:20;13.75;;;5.43;;
75645;SDS011;64237;52.438;13.240;2023-01-19T06:11:45;12.38;;;5.30;;
75645;SDS011;64237;52.438;13.240;2023-01-19T06:14:11;17.25;;;6.28;;
75645;SDS011;64237;52.438;13.240;2023-01-19T06:16:37;14.63;;;5.47;;
75645;SDS011;64237;52.438;13.240;2023-01-19T06:19:03;13.40;;;5.63;;
75645;SDS011;64237;52.438;13.240;2023-01-19T06:21:28;11.15;;;4.88;;
75645;SDS011;64237;52.438;13.240;2023-01-19T06:23:53;16.67;;;5.33;;
75645;SDS011;64237;52.438;13.240;2023-01-19T06:26:18;13.27;;;4.97;;
75645;SDS011;64237;52.438;13.240;2023-01-19T06:28:44;13.90;;;4.63;;
75645;SDS011;64237;52.438;13.240;2023-01-19T06:31:10;13.40;;;5.32;;
75645;SDS011;64237;52.438;13.240;2023-01-19T06:33:35;15.47;;;4.77;;
75645;SDS011;64237;52.438;13.240;2023-01-19T06:36:01;11.77;;;4.73;;
75645;SDS011;64237;52.438;13.240;2023-01-19T06:38:26;13.23;;;5.27;;
75645;SDS011;64237;52.438;13.240;2023-01-19T06:40:52;12.90;;;4.88;;
75645;SDS011;64237;52.438;13.240;2023-01-19T06:43:27;10.35;;;4.20;;
75645;SDS011;64237;52.438;13.240;2023-01-19T06:45:53;15.32;;;4.85;;
75645;SDS011;64237;52.438;13.240;2023-01-19T06:48:20;16.52;;;5.35;;
75645;SDS011;64237;52.438;13.240;2023-01-19T06:50:46;13.57;;;5.05;;
75645;SDS011;64237;52.438;13.240;2023-01-19T06:53:12;12.52;;;4.45;;
75645;SDS011;64237;52.438;13.240;2023-01-19T06:55:40;11.18;;;4.90;;
75645;SDS011;64237;52.438;13.240;2023-01-19T06:58:08;12.80;;;4.80;;
75645;SDS011;64237;52.438;13.240;2023-01-19T07:00:34;15.82;;;4.55;;
75645;SDS011;64237;52.438;13.240;2023-01-19T07:03:00;13.70;;;4.63;;
75645;SDS011;64237;52.438;13.240;2023-01-19T07:05:25;14.00;;;5.10;;
75645;SDS011;64237;52.438;13.240;2023-01-19T07:07:51;14.77;;;5.10;;
75645;SDS011;64237;52.438;13.240;2023-01-19T07:10:20;12.98;;;4.93;;
75645;SDS011;64237;52.438;13.240;2023-01-19T07:12:47;12.63;;;5.13;;
75645;SDS011;64237;52.438;13.240;2023-01-19T07:15:13;13.43;;;5.03;;
75645;SDS011;64237;52.438;13.240;2023-01-19T07:17:39;18.50;;;4.82;;
75645;SDS011;64237;52.438;13.240;2023-01-19T07:20:06;11.75;;;4.93;;
75645;SDS011;64237;52.438;13.240;2023-01-19T07:22:37;16.00;;;4.95;;
75645;SDS011;64237;52.438;13.240;2023-01-19T07:25:02;13.90;;;5.38;;
75645;SDS011;64237;52.438;13.240;2023-01-19T07:27:28;12.50;;;4.68;;
75645;SDS011;64237;52.438;13.240;2023-01-19T07:29:54;18.67;;;5.20;;
75645;SDS011;64237;52.438;13.240;2023-01-19T07:32:19;12.80;;;4.60;;
75645;SDS011;64237;52.438;13.240;2023-01-19T07:34:44;15.77;;;5.28;;
75645;SDS011;64237;52.438;13.240;2023-01-19T07:37:10;13.90;;;4.93;;
75645;SDS011;64237;52.438;13.240;2023-01-19T07:39:35;12.63;;;4.78;;
75645;SDS011;64237;52.438;13.240;2023-01-19T07:42:00;14.03;;;5.47;;
75645;SDS011;64237;52.438;13.240;2023-01-19T07:44:26;12.40;;;4.80;;
75645;SDS011;64237;52.438;13.240;2023-01-19T07:46:51;14.90;;;5.40;;
75645;SDS011;64237;52.438;13.240;2023-01-19T07:49:16;10.88;;;4.95;;
75645;SDS011;64237;52.438;13.240;2023-01-19T07:51:42;12.07;;;4.90;;
75645;SDS011;64237;52.438;13.240;2023-01-19T07:54:07;16.33;;;4.78;;
75645;SDS011;64237;52.438;13.240;2023-01-19T07:56:33;13.80;;;4.55;;
75645;SDS011;64237;52.438;13.240;2023-01-19T07:58:58;12.73;;;4.90;;
75645;SDS011;64237;52.438;13.240;2023-01-19T08:01:23;14.13;;;5.30;;
75645;SDS011;64237;52.438;13.240;2023-01-19T08:03:49;11.52;;;5.13;;
75645;SDS011;64237;52.438;13.240;2023-01-19T08:06:21;12.75;;;4.75;;
75645;SDS011;64237;52.438;13.240;2023-01-19T08:08:48;13.50;;;5.00;;
75645;SDS011;64237;52.438;13.240;2023-01-19T08:11:14;11.20;;;4.32;;
75645;SDS011;64237;52.438;13.240;2023-01-19T08:13:41;10.15;;;4.53;;
75645;SDS011;64237;52.438;13.240;2023-01-19T08:16:07;12.57;;;4.60;;
75645;SDS011;64237;52.438;13.240;2023-01-19T08:18:33;11.48;;;4.63;;
75645;SDS011;64237;52.438;13.240;2023-01-19T08:20:58;12.80;;;5.10;;
75645;SDS011;64237;52.438;13.240;2023-01-19T08:23:24;14.43;;;4.72;;
75645;SDS011;64237;52.438;13.240;2023-01-19T08:25:49;11.52;;;4.35;;
75645;SDS011;64237;52.438;13.240;2023-01-19T08:28:15;12.83;;;5.40;;
75645;SDS011;64237;52.438;13.240;2023-01-19T08:30:41;17.55;;;5.22;;
75645;SDS011;64237;52.438;13.240;2023-01-19T08:33:08;10.57;;;4.80;;
75645;SDS011;64237;52.438;13.240;2023-01-19T08:35:36;14.40;;;4.78;;
75645;SDS011;64237;52.438;13.240;2023-01-19T08:38:04;13.00;;;4.82;;
75645;SDS011;64237;52.438;13.240;2023-01-19T08:40:30;14.90;;;4.60;;
75645;SDS011;64237;52.438;13.240;2023-01-19T08:43:00;12.63;;;4.53;;
75645;SDS011;64237;52.438;13.240;2023-01-19T08:45:31;7.35;;;3.20;;
75645;SDS011;64237;52.438;13.240;2023-01-19T08:47:57;11.98;;;4.90;;
75645;SDS011;64237;52.438;13.240;2023-01-19T08:50:26;10.63;;;4.10;;
75645;SDS011;64237;52.438;13.240;2023-01-19T08:52:56;9.48;;;3.67;;
75645;SDS011;64237;52.438;13.240;2023-01-19T08:55:22;12.25;;;3.95;;
75645;SDS011;64237;52.438;13.240;2023-01-19T08:57:52;9.13;;;3.67;;
75645;SDS011;64237;52.438;13.240;2023-01-19T09:00:18;9.70;;;3.97;;
75645;SDS011;64237;52.438;13.240;2023-01-19T09:02:44;13.95;;;4.00;;
75645;SDS011;64237;52.438;13.240;2023-01-19T09:05:10;10.02;;;3.58;;
75645;SDS011;64237;52.438;13.240;2023-01-19T09:07:36;12.35;;;4.05;;
75645;SDS011;64237;52.438;13.240;2023-01-19T09:10:02;11.18;;;3.60;;
75645;SDS011;64237;52.438;13.240;2023-01-19T09:12:28;9.73;;;3.30;;
75645;SDS011;64237;52.438;13.240;2023-01-19T09:14:53;7.57;;;2.77;;
75645;SDS011;64237;52.438;13.240;2023-01-19T09:17:19;8.90;;;3.27;;
75645;SDS011;64237;52.438;13.240;2023-01-19T09:19:44;8.43;;;2.67;;
75645;SDS011;64237;52.438;13.240;2023-01-19T09:22:09;9.27;;;3.10;;
75645;SDS011;64237;52.438;13.240;2023-01-19T09:24:34;8.00;;;2.83;;
75645;SDS011;64237;52.438;13.240;2023-01-19T09:27:00;9.13;;;3.00;;
75645;SDS011;64237;52.438;13.240;2023-01-19T09:29:26;8.13;;;2.30;;
75645;SDS011;64237;52.438;13.240;2023-01-19T09:31:51;9.37;;;3.10;;
75645;SDS011;64237;52.438;13.240;2023-01-19T09:34:17;8.07;;;3.05;;
75645;SDS011;64237;52.438;13.240;2023-01-19T09:36:42;9.43;;;3.67;;
75645;SDS011;64237;52.438;13.240;2023-01-19T09:39:08;4.88;;;1.65;;
75645;SDS011;64237;52.438;13.240;2023-01-19T09:41:35;10.20;;;3.30;;
75645;SDS011;64237;52.438;13.240;2023-01-19T09:44:02;10.75;;;3.38;;
75645;SDS011;64237;52.438;13.240;2023-01-19T09:46:31;14.07;;;3.53;;
75645;SDS011;64237;52.438;13.240;2023-01-19T09:49:01;10.38;;;3.60;;
75645;SDS011;64237;52.438;13.240;2023-01-19T09:51:32;6.88;;;2.72;;
75645;SDS011;64237;52.438;13.240;2023-01-19T09:54:09;9.27;;;3.10;;
75645;SDS011;64237;52.438;13.240;2023-01-19T09:56:38;8.10;;;2.72;;
75645;SDS011;64237;52.438;13.240;2023-01-19T10:04:31;8.93;;;3.25;;
75645;SDS011;64237;52.438;13.240;2023-01-19T10:09:41;8.50;;;3.17;;
75645;SDS011;64237;52.438;13.240;2023-01-19T10:12:32;9.13;;;3.08;;
75645;SDS011;64237;52.438;13.240;2023-01-19T10:17:59;9.02;;;3.42;;
75645;SDS011;64237;52.438;13.240;2023-01-19T10:20:50;15.95;;;2.08;;
75645;SDS011;64237;52.438;13.240;2023-01-19T10:26:07;9.40;;;3.20;;
75645;SDS011;64237;52.438;13.240;2023-01-19T10:28:37;9.85;;;3.35;;
75645;SDS011;64237;52.438;13.240;2023-01-19T10:31:04;10.20;;;3.58;;
75645;SDS011;64237;52.438;13.240;2023-01-19T10:33:33;10.23;;;3.50;;
75645;SDS011;64237;52.438;13.240;2023-01-19T10:36:02;6.93;;;2.92;;
75645;SDS011;64237;52.438;13.240;2023-01-19T10:38:28;11.88;;;3.47;;
75645;SDS011;64237;52.438;13.240;2023-01-19T10:40:57;10.75;;;3.35;;
75645;SDS011;64237;52.438;13.240;2023-01-19T10:43:50;9.48;;;3.38;;
75645;SDS011;64237;52.438;13.240;2023-01-19T10:46:29;9.60;;;3.80;;
75645;SDS011;64237;52.438;13.240;2023-01-19T10:49:01;12.20;;;4.10;;
75645;SDS011;64237;52.438;13.240;2023-01-19T10:51:27;11.50;;;3.42;;
75645;SDS011;64237;52.438;13.240;2023-01-19T10:53:53;8.02;;;3.22;;
75645;SDS011;64237;52.438;13.240;2023-01-19T10:56:26;5.72;;;2.30;;
75645;SDS011;64237;52.438;13.240;2023-01-19T10:58:54;12.27;;;3.58;;
75645;SDS011;64237;52.438;13.240;2023-01-19T11:01:24;9.63;;;3.58;;
75645;SDS011;64237;52.438;13.240;2023-01-19T11:03:51;9.95;;;4.03;;
75645;SDS011;64237;52.438;13.240;2023-01-19T11:09:08;9.63;;;3.42;;
75645;SDS011;64237;52.438;13.240;2023-01-19T11:11:51;7.65;;;2.72;;
75645;SDS011;64237;52.438;13.240;2023-01-19T11:14:18;10.68;;;3.90;;
75645;SDS011;64237;52.438;13.240;2023-01-19T11:16:49;7.60;;;3.42;;
75645;SDS011;64237;52.438;13.240;2023-01-19T11:19:24;8.75;;;3.67;;
75645;SDS011;64237;52.438;13.240;2023-01-19T11:21:52;11.75;;;3.58;;
75645;SDS011;64237;52.438;13.240;2023-01-19T11:24:35;8.07;;;3.58;;
75645;SDS011;64237;52.438;13.240;2023-01-19T11:27:01;7.07;;;3.05;;
75645;SDS011;64237;52.438;13.240;2023-01-19T11:29:27;7.43;;;3.25;;
75645;SDS011;64237;52.438;13.240;2023-01-19T11:31:53;9.40;;;3.60;;
75645;SDS011;64237;52.438;13.240;2023-01-19T11:34:34;8.82;;;3.60;;
75645;SDS011;64237;52.438;13.240;2023-01-19T11:39:44;9.00;;;3.53;;
75645;SDS011;64237;52.438;13.240;2023-01-19T11:42:12;8.48;;;3.58;;
75645;SDS011;64237;52.438;13.240;2023-01-19T11:44:42;9.02;;;3.10;;
75645;SDS011;64237;52.438;13.240;2023-01-19T11:47:16;6.40;;;2.55;;
75645;SDS011;64237;52.438;13.240;2023-01-19T11:52:40;9.23;;;3.35;;
75645;SDS011;64237;52.438;13.240;2023-01-19T11:57:35;8.60;;;3.17;;
75645;SDS011;64237;52.438;13.240;2023-01-19T12:00:02;11.98;;;3.47;;
75645;SDS011;64237;52.438;13.240;2023-01-19T12:02:41;11.35;;;3.92;;
75645;SDS011;64237;52.438;13.240;2023-01-19T12:05:11;8.65;;;3.53;;
75645;SDS011;64237;52.438;13.240;2023-01-19T12:07:42;7.80;;;3.42;;
75645;SDS011;64237;52.438;13.240;2023-01-19T12:12:44;8.25;;;3.95;;
75645;SDS011;64237;52.438;13.240;2023-01-19T12:15:19;9.43;;;3.50;;
75645;SDS011;64237;52.438;13.240;2023-01-19T12:17:50;7.95;;;3.17;;
75645;SDS011;64237;52.438;13.240;2023-01-19T12:22:50;10.02;;;3.50;;
75645;SDS011;64237;52.438;13.240;2023-01-19T12:25:30;9.25;;;3.00;;
75645;SDS011;64237;52.438;13.240;2023-01-19T12:28:18;8.50;;;3.70;;
75645;SDS011;64237;52.438;13.240;2023-01-19T12:30:50;8.73;;;3.58;;
75645;SDS011;64237;52.438;13.240;2023-01-19T12:41:24;8.80;;;3.35;;
75645;SDS011;64237;52.438;13.240;2023-01-19T12:46:33;9.57;;;3.88;;
75645;SDS011;64237;52.438;13.240;2023-01-19T12:49:17;9.23;;;3.60;;
75645;SDS011;64237;52.438;13.240;2023-01-19T12:55:06;8.13;;;3.30;;
75645;SDS011;64237;52.438;13.240;2023-01-19T13:00:38;9.82;;;3.65;;
75645;SDS011;64237;52.438;13.240;2023-01-19T13:13:17;9.70;;;3.47;;
75645;SDS011;64237;52.438;13.240;2023-01-19T13:15:45;9.60;;;3.83;;
75645;SDS011;64237;52.438;13.240;2023-01-19T13:18:17;9.13;;;3.95;;
75645;SDS011;64237;52.438;13.240;2023-01-19T13:21:06;8.95;;;3.47;;
75645;SDS011;64237;52.438;13.240;2023-01-19T13:26:14;8.00;;;3.60;;
75645;SDS011;64237;52.438;13.240;2023-01-19T13:28:42;10.18;;;3.90;;
75645;SDS011;64237;52.438;13.240;2023-01-19T13:31:10;7.88;;;3.33;;
75645;SDS011;64237;52.438;13.240;2023-01-19T13:33:58;6.85;;;3.08;;
75645;SDS011;64237;52.438;13.240;2023-01-19T13:36:29;8.50;;;3.50;;
75645;SDS011;64237;52.438;13.240;2023-01-19T13:38:58;9.65;;;3.67;;
75645;SDS011;64237;52.438;13.240;2023-01-19T13:41:27;10.63;;;4.13;;
75645;SDS011;64237;52.438;13.240;2023-01-19T13:43:59;9.70;;;4.13;;
75645;SDS011;64237;52.438;13.240;2023-01-19T13:46:27;10.13;;;4.25;;
75645;SDS011;64237;52.438;13.240;2023-01-19T13:48:55;10.82;;;4.00;;
75645;SDS011;64237;52.438;13.240;2023-01-19T13:51:22;8.50;;;3.92;;
75645;SDS011;64237;52.438;13.240;2023-01-19T13:53:54;9.45;;;3.85;;
75645;SDS011;64237;52.438;13.240;2023-01-19T13:56:21;9.02;;;3.35;;
75645;SDS011;64237;52.438;13.240;2023-01-19T14:01:25;13.32;;;4.18;;
75645;SDS011;64237;52.438;13.240;2023-01-19T14:03:51;13.68;;;4.80;;
75645;SDS011;64237;52.438;13.240;2023-01-19T14:09:12;10.73;;;3.92;;
75645;SDS011;64237;52.438;13.240;2023-01-19T14:11:43;10.95;;;4.63;;
75645;SDS011;64237;52.438;13.240;2023-01-19T14:14:22;12.95;;;3.90;;
75645;SDS011;64237;52.438;13.240;2023-01-19T14:16:52;9.75;;;4.35;;
75645;SDS011;64237;52.438;13.240;2023-01-19T14:19:17;12.68;;;4.45;;
75645;SDS011;64237;52.438;13.240;2023-01-19T14:21:43;13.45;;;4.72;;
75645;SDS011;64237;52.438;13.240;2023-01-19T14:24:16;10.70;;;4.38;;
75645;SDS011;64237;52.438;13.240;2023-01-19T14:26:47;9.30;;;3.92;;
75645;SDS011;64237;52.438;13.240;2023-01-19T14:34:35;10.73;;;4.03;;
75645;SDS011;64237;52.438;13.240;2023-01-19T14:37:04;12.88;;;5.03;;
75645;SDS011;64237;52.438;13.240;2023-01-19T14:39:39;9.45;;;4.25;;
75645;SDS011;64237;52.438;13.240;2023-01-19T14:42:26;10.80;;;4.72;;
75645;SDS011;64237;52.438;13.240;2023-01-19T14:44:55;16.25;;;4.60;;
75645;SDS011;64237;52.438;13.240;2023-01-19T14:47:34;11.77;;;4.75;;
75645;SDS011;64237;52.438;13.240;2023-01-19T14:50:16;12.85;;;4.90;;
75645;SDS011;64237;52.438;13.240;2023-01-19T14:52:55;9.85;;;4.13;;
75645;SDS011;64237;52.438;13.240;2023-01-19T14:55:27;13.85;;;4.80;;
75645;SDS011;64237;52.438;13.240;2023-01-19T14:58:10;12.20;;;4.85;;
75645;SDS011;64237;52.438;13.240;2023-01-19T15:00:37;11.93;;;4.68;;
75645;SDS011;64237;52.438;13.240;2023-01-19T15:03:03;12.50;;;4.78;;
75645;SDS011;64237;52.438;13.240;2023-01-19T15:05:30;10.77;;;4.60;;
75645;SDS011;64237;52.438;13.240;2023-01-19T15:07:56;12.48;;;5.32;;
75645;SDS011;64237;52.438;13.240;2023-01-19T15:10:21;10.07;;;4.80;;
75645;SDS011;64237;52.438;13.240;2023-01-19T15:12:48;12.43;;;5.00;;
75645;SDS011;64237;52.438;13.240;2023-01-19T15:15:19;13.77;;;5.07;;
75645;SDS011;64237;52.438;13.240;2023-01-19T15:17:54;13.48;;;5.53;;
75645;SDS011;64237;52.438;13.240;2023-01-19T15:20:20;13.32;;;5.57;;
75645;SDS011;64237;52.438;13.240;2023-01-19T15:22:46;13.85;;;5.28;;
75645;SDS011;64237;52.438;13.240;2023-01-19T15:25:16;13.90;;;6.03;;
75645;SDS011;64237;52.438;13.240;2023-01-19T15:27:46;14.32;;;5.53;;
75645;SDS011;64237;52.438;13.240;2023-01-19T15:32:37;12.87;;;4.83;;
75645;SDS011;64237;52.438;13.240;2023-01-19T15:35:11;13.32;;;5.35;;
75645;SDS011;64237;52.438;13.240;2023-01-19T15:37:41;15.25;;;5.00;;
75645;SDS011;64237;52.438;13.240;2023-01-19T15:40:07;13.13;;;5.45;;
75645;SDS011;64237;52.438;13.240;2023-01-19T15:42:33;15.00;;;5.32;;
75645;SDS011;64237;52.438;13.240;2023-01-19T15:44:58;15.32;;;4.97;;
75645;SDS011;64237;52.438;13.240;2023-01-19T15:47:23;12.80;;;5.70;;
75645;SDS011;64237;52.438;13.240;2023-01-19T15:49:49;12.37;;;4.67;;
75645;SDS011;64237;52.438;13.240;2023-01-19T15:52:14;15.38;;;5.85;;
75645;SDS011;64237;52.438;13.240;2023-01-19T15:54:39;12.55;;;5.20;;
75645;SDS011;64237;52.438;13.240;2023-01-19T15:57:05;14.93;;;5.43;;
75645;SDS011;64237;52.438;13.240;2023-01-19T15:59:30;12.50;;;5.33;;
75645;SDS011;64237;52.438;13.240;2023-01-19T16:01:55;11.53;;;5.03;;
75645;SDS011;64237;52.438;13.240;2023-01-19T16:04:21;12.13;;;5.53;;